sensor_id;sensor_type;location;lat;lon;timestamp;temperature;humidity
6146;DHT22;3104;50.348;7.620;2022-12-07T00:01:16;5.20;99.90
6146;DHT22;3104;50.348;7.620;2022-12-07T00:03:44;5.00;99.90
6146;DHT22;3104;50.348;7.620;2022-12-07T00:06:12;5.30;99.90
6146;DHT22;3104;50.348;7.620;2022-12-07T00:08:38;5.40;99.90
6146;DHT22;3104;50.348;7.620;2022-12-07T00:11:15;5.30;99.90
6146;DHT22;3104;50.348;7.620;2022-12-07T00:13:42;5.20;99.90
6146;DHT22;3104;50.348;7.620;2022-12-07T00:16:09;5.10;99.90
6146;DHT22;3104;50.348;7.620;2022-12-07T00:18:36;5.20;99.90
6146;DHT22;3104;50.348;7.620;2022-12-07T00:21:04;5.20;99.90
6146;DHT22;3104;50.348;7.620;2022-12-07T00:23:30;5.30;99.90
6146;DHT22;3104;50.348;7.620;2022-12-07T00:25:56;5.20;99.90
6146;DHT22;3104;50.348;7.620;2022-12-07T00:28:21;5.20;99.90
6146;DHT22;3104;50.348;7.620;2022-12-07T00:30:47;5.20;99.90
6146;DHT22;3104;50.348;7.620;2022-12-07T00:33:12;5.10;99.90
6146;DHT22;3104;50.348;7.620;2022-12-07T00:35:38;5.00;99.90
6146;DHT22;3104;50.348;7.620;2022-12-07T00:38:04;5.10;99.90
6146;DHT22;3104;50.348;7.620;2022-12-07T00:40:29;5.20;99.90
6146;DHT22;3104;50.348;7.620;2022-12-07T00:42:55;5.20;99.90
6146;DHT22;3104;50.348;7.620;2022-12-07T00:45:21;5.40;99.90
6146;DHT22;3104;50.348;7.620;2022-12-07T00:47:46;5.30;99.90
6146;DHT22;3104;50.348;7.620;2022-12-07T00:50:12;5.00;99.90
6146;DHT22;3104;50.348;7.620;2022-12-07T00:52:37;5.20;99.90
6146;DHT22;3104;50.348;7.620;2022-12-07T00:55:03;5.10;99.90
6146;DHT22;3104;50.348;7.620;2022-12-07T00:57:30;5.20;99.90
6146;DHT22;3104;50.348;7.620;2022-12-07T00:59:56;5.10;99.90
6146;DHT22;3104;50.348;7.620;2022-12-07T01:02:23;5.10;99.90
6146;DHT22;3104;50.348;7.620;2022-12-07T01:04:48;4.90;99.90
6146;DHT22;3104;50.348;7.620;2022-12-07T01:07:14;4.90;99.90
6146;DHT22;3104;50.348;7.620;2022-12-07T01:09:39;5.10;99.90
6146;DHT22;3104;50.348;7.620;2022-12-07T01:12:05;5.20;99.90
6146;DHT22;3104;50.348;7.620;2022-12-07T01:14:31;5.10;99.90
6146;DHT22;3104;50.348;7.620;2022-12-07T01:16:56;5.30;99.90
6146;DHT22;3104;50.348;7.620;2022-12-07T01:19:22;5.10;99.90
6146;DHT22;3104;50.348;7.620;2022-12-07T01:21:47;5.10;99.90
6146;DHT22;3104;50.348;7.620;2022-12-07T01:24:13;5.20;99.90
6146;DHT22;3104;50.348;7.620;2022-12-07T01:26:38;5.20;99.90
6146;DHT22;3104;50.348;7.620;2022-12-07T01:29:04;5.20;99.90
6146;DHT22;3104;50.348;7.620;2022-12-07T01:31:30;5.20;99.90
6146;DHT22;3104;50.348;7.620;2022-12-07T01:33:58;5.00;99.90
6146;DHT22;3104;50.348;7.620;2022-12-07T01:38:53;4.80;99.90
6146;DHT22;3104;50.348;7.620;2022-12-07T01:41:22;4.60;99.90
6146;DHT22;3104;50.348;7.620;2022-12-07T01:44:17;4.70;99.90
6146;DHT22;3104;50.348;7.620;2022-12-07T01:46:48;4.90;99.90
6146;DHT22;3104;50.348;7.620;2022-12-07T01:49:37;4.80;99.90
6146;DHT22;3104;50.348;7.620;2022-12-07T01:52:24;4.80;99.90
6146;DHT22;3104;50.348;7.620;2022-12-07T01:54:54;4.80;99.90
6146;DHT22;3104;50.348;7.620;2022-12-07T01:57:21;5.10;99.90
6146;DHT22;3104;50.348;7.620;2022-12-07T01:59:49;5.20;99.90
6146;DHT22;3104;50.348;7.620;2022-12-07T02:02:34;5.20;99.90
6146;DHT22;3104;50.348;7.620;2022-12-07T02:05:02;5.20;99.90
6146;DHT22;3104;50.348;7.620;2022-12-07T02:07:28;5.10;99.90
6146;DHT22;3104;50.348;7.620;2022-12-07T02:09:54;5.00;99.90
6146;DHT22;3104;50.348;7.620;2022-12-07T02:12:22;5.20;99.90
6146;DHT22;3104;50.348;7.620;2022-12-07T02:14:48;5.10;99.90
6146;DHT22;3104;50.348;7.620;2022-12-07T02:17:23;4.90;99.90
6146;DHT22;3104;50.348;7.620;2022-12-07T02:26:02;5.10;99.90
6146;DHT22;3104;50.348;7.620;2022-12-07T02:29:23;5.10;99.90
6146;DHT22;3104;50.348;7.620;2022-12-07T02:37:00;5.00;99.90
6146;DHT22;3104;50.348;7.620;2022-12-07T02:39:52;5.10;99.90
6146;DHT22;3104;50.348;7.620;2022-12-07T02:42:25;5.00;99.90
6146;DHT22;3104;50.348;7.620;2022-12-07T02:44:52;4.90;99.90
6146;DHT22;3104;50.348;7.620;2022-12-07T02:47:18;5.00;99.90
6146;DHT22;3104;50.348;7.620;2022-12-07T02:49:45;5.10;99.90
6146;DHT22;3104;50.348;7.620;2022-12-07T02:52:11;5.00;99.90
6146;DHT22;3104;50.348;7.620;2022-12-07T02:54:37;4.90;99.90
6146;DHT22;3104;50.348;7.620;2022-12-07T02:59:59;5.00;99.90
6146;DHT22;3104;50.348;7.620;2022-12-07T03:10:56;4.80;99.90
6146;DHT22;3104;50.348;7.620;2022-12-07T03:18:55;4.90;99.90
6146;DHT22;3104;50.348;7.620;2022-12-07T03:21:34;4.90;99.90
6146;DHT22;3104;50.348;7.620;2022-12-07T03:24:07;4.90;99.90
6146;DHT22;3104;50.348;7.620;2022-12-07T03:26:42;4.90;99.90
6146;DHT22;3104;50.348;7.620;2022-12-07T03:29:40;4.90;99.90
6146;DHT22;3104;50.348;7.620;2022-12-07T03:32:26;5.00;99.90
6146;DHT22;3104;50.348;7.620;2022-12-07T03:34:55;5.10;99.90
6146;DHT22;3104;50.348;7.620;2022-12-07T03:37:32;5.00;99.90
6146;DHT22;3104;50.348;7.620;2022-12-07T03:40:20;5.00;99.90
6146;DHT22;3104;50.348;7.620;2022-12-07T03:42:48;5.00;99.90
6146;DHT22;3104;50.348;7.620;2022-12-07T03:45:15;5.00;99.90
6146;DHT22;3104;50.348;7.620;2022-12-07T03:48:05;5.00;99.90
6146;DHT22;3104;50.348;7.620;2022-12-07T03:53:29;5.00;99.90
6146;DHT22;3104;50.348;7.620;2022-12-07T03:55:57;5.10;99.90
6146;DHT22;3104;50.348;7.620;2022-12-07T03:58:24;5.10;99.90
6146;DHT22;3104;50.348;7.620;2022-12-07T04:00:50;5.10;99.90
6146;DHT22;3104;50.348;7.620;2022-12-07T04:03:16;5.00;99.90
6146;DHT22;3104;50.348;7.620;2022-12-07T04:05:43;5.20;99.90
6146;DHT22;3104;50.348;7.620;2022-12-07T04:08:09;5.10;99.90
6146;DHT22;3104;50.348;7.620;2022-12-07T04:10:35;5.10;99.90
6146;DHT22;3104;50.348;7.620;2022-12-07T04:13:01;5.00;99.90
6146;DHT22;3104;50.348;7.620;2022-12-07T04:15:27;5.10;99.90
6146;DHT22;3104;50.348;7.620;2022-12-07T04:17:53;5.10;99.90
6146;DHT22;3104;50.348;7.620;2022-12-07T04:20:20;5.10;99.90
6146;DHT22;3104;50.348;7.620;2022-12-07T04:22:46;5.10;99.90
6146;DHT22;3104;50.348;7.620;2022-12-07T04:25:11;5.10;99.90
6146;DHT22;3104;50.348;7.620;2022-12-07T04:27:37;5.20;99.90
6146;DHT22;3104;50.348;7.620;2022-12-07T04:30:03;5.10;99.90
6146;DHT22;3104;50.348;7.620;2022-12-07T04:32:29;4.90;99.90
6146;DHT22;3104;50.348;7.620;2022-12-07T04:34:55;4.90;99.90
6146;DHT22;3104;50.348;7.620;2022-12-07T04:37:21;4.90;99.90
6146;DHT22;3104;50.348;7.620;2022-12-07T04:39:46;5.00;99.90
6146;DHT22;3104;50.348;7.620;2022-12-07T04:42:12;4.90;99.90
6146;DHT22;3104;50.348;7.620;2022-12-07T04:44:38;4.90;99.90
6146;DHT22;3104;50.348;7.620;2022-12-07T04:47:04;4.80;99.90
6146;DHT22;3104;50.348;7.620;2022-12-07T04:49:31;4.80;99.90
6146;DHT22;3104;50.348;7.620;2022-12-07T04:51:56;4.90;99.90
6146;DHT22;3104;50.348;7.620;2022-12-07T04:54:22;5.00;99.90
6146;DHT22;3104;50.348;7.620;2022-12-07T04:56:48;5.00;99.90
6146;DHT22;3104;50.348;7.620;2022-12-07T04:59:15;4.90;99.90
6146;DHT22;3104;50.348;7.620;2022-12-07T05:01:41;4.90;99.90
6146;DHT22;3104;50.348;7.620;2022-12-07T05:04:07;5.00;99.90
6146;DHT22;3104;50.348;7.620;2022-12-07T05:06:32;5.00;99.90
6146;DHT22;3104;50.348;7.620;2022-12-07T05:08:58;5.00;99.90
6146;DHT22;3104;50.348;7.620;2022-12-07T05:11:24;4.90;99.90
6146;DHT22;3104;50.348;7.620;2022-12-07T05:14:28;4.90;99.90
6146;DHT22;3104;50.348;7.620;2022-12-07T05:16:53;5.10;99.90
6146;DHT22;3104;50.348;7.620;2022-12-07T05:19:19;4.80;99.90
6146;DHT22;3104;50.348;7.620;2022-12-07T05:21:45;4.90;99.90
6146;DHT22;3104;50.348;7.620;2022-12-07T05:24:12;4.70;99.90
6146;DHT22;3104;50.348;7.620;2022-12-07T05:26:38;5.00;99.90
6146;DHT22;3104;50.348;7.620;2022-12-07T05:29:04;5.00;99.90
6146;DHT22;3104;50.348;7.620;2022-12-07T05:31:30;4.80;99.90
6146;DHT22;3104;50.348;7.620;2022-12-07T05:33:55;4.90;99.90
6146;DHT22;3104;50.348;7.620;2022-12-07T05:36:22;4.80;99.90
6146;DHT22;3104;50.348;7.620;2022-12-07T05:38:47;5.00;99.90
6146;DHT22;3104;50.348;7.620;2022-12-07T05:41:16;5.00;99.90
6146;DHT22;3104;50.348;7.620;2022-12-07T05:44:00;5.10;99.90
6146;DHT22;3104;50.348;7.620;2022-12-07T05:46:26;5.00;99.90
6146;DHT22;3104;50.348;7.620;2022-12-07T05:48:52;4.90;99.90
6146;DHT22;3104;50.348;7.620;2022-12-07T05:51:18;5.00;99.90
6146;DHT22;3104;50.348;7.620;2022-12-07T05:53:44;5.00;99.90
6146;DHT22;3104;50.348;7.620;2022-12-07T05:56:10;5.10;99.90
6146;DHT22;3104;50.348;7.620;2022-12-07T05:58:35;5.10;99.90
6146;DHT22;3104;50.348;7.620;2022-12-07T06:01:19;5.00;99.90
6146;DHT22;3104;50.348;7.620;2022-12-07T06:03:45;4.90;99.90
6146;DHT22;3104;50.348;7.620;2022-12-07T06:06:10;4.90;99.90
6146;DHT22;3104;50.348;7.620;2022-12-07T06:08:36;5.00;99.90
6146;DHT22;3104;50.348;7.620;2022-12-07T06:11:02;5.10;99.90
6146;DHT22;3104;50.348;7.620;2022-12-07T06:13:46;5.10;99.90
6146;DHT22;3104;50.348;7.620;2022-12-07T06:16:11;5.10;99.90
6146;DHT22;3104;50.348;7.620;2022-12-07T06:18:37;5.20;99.90
6146;DHT22;3104;50.348;7.620;2022-12-07T06:21:03;5.10;99.90
6146;DHT22;3104;50.348;7.620;2022-12-07T06:23:28;5.20;99.90
6146;DHT22;3104;50.348;7.620;2022-12-07T06:25:54;5.20;99.90
6146;DHT22;3104;50.348;7.620;2022-12-07T06:28:19;5.10;99.90
6146;DHT22;3104;50.348;7.620;2022-12-07T06:30:45;5.00;99.90
6146;DHT22;3104;50.348;7.620;2022-12-07T06:33:10;5.10;99.90
6146;DHT22;3104;50.348;7.620;2022-12-07T06:35:36;5.10;99.90
6146;DHT22;3104;50.348;7.620;2022-12-07T06:38:02;5.10;99.90
6146;DHT22;3104;50.348;7.620;2022-12-07T06:40:27;5.10;99.90
6146;DHT22;3104;50.348;7.620;2022-12-07T06:42:53;5.00;99.90
6146;DHT22;3104;50.348;7.620;2022-12-07T06:45:19;5.20;99.90
6146;DHT22;3104;50.348;7.620;2022-12-07T06:47:44;5.10;99.90
6146;DHT22;3104;50.348;7.620;2022-12-07T06:50:10;5.20;99.90
6146;DHT22;3104;50.348;7.620;2022-12-07T06:52:35;5.10;99.90
6146;DHT22;3104;50.348;7.620;2022-12-07T06:55:01;5.10;99.90
6146;DHT22;3104;50.348;7.620;2022-12-07T06:57:26;5.10;99.90
6146;DHT22;3104;50.348;7.620;2022-12-07T06:59:53;5.10;99.90
6146;DHT22;3104;50.348;7.620;2022-12-07T07:02:18;5.20;99.90
6146;DHT22;3104;50.348;7.620;2022-12-07T07:04:44;4.90;99.90
6146;DHT22;3104;50.348;7.620;2022-12-07T07:07:09;4.80;99.90
6146;DHT22;3104;50.348;7.620;2022-12-07T07:09:35;4.80;99.90
6146;DHT22;3104;50.348;7.620;2022-12-07T07:12:01;4.90;99.90
6146;DHT22;3104;50.348;7.620;2022-12-07T07:14:26;5.10;99.90
6146;DHT22;3104;50.348;7.620;2022-12-07T07:16:52;5.20;99.90
6146;DHT22;3104;50.348;7.620;2022-12-07T07:19:18;5.20;99.90
6146;DHT22;3104;50.348;7.620;2022-12-07T07:21:43;5.20;99.90
6146;DHT22;3104;50.348;7.620;2022-12-07T07:24:09;5.30;99.90
6146;DHT22;3104;50.348;7.620;2022-12-07T07:26:34;5.20;99.90
6146;DHT22;3104;50.348;7.620;2022-12-07T07:29:00;5.20;99.90
6146;DHT22;3104;50.348;7.620;2022-12-07T07:31:26;5.40;99.90
6146;DHT22;3104;50.348;7.620;2022-12-07T07:33:51;5.30;99.90
6146;DHT22;3104;50.348;7.620;2022-12-07T07:36:17;5.20;99.90
6146;DHT22;3104;50.348;7.620;2022-12-07T07:38:43;5.10;99.90
6146;DHT22;3104;50.348;7.620;2022-12-07T07:41:08;4.80;99.90
6146;DHT22;3104;50.348;7.620;2022-12-07T07:43:34;4.80;99.90
6146;DHT22;3104;50.348;7.620;2022-12-07T07:45:59;4.70;99.90
6146;DHT22;3104;50.348;7.620;2022-12-07T07:48:25;4.70;99.90
6146;DHT22;3104;50.348;7.620;2022-12-07T07:50:51;5.00;99.90
6146;DHT22;3104;50.348;7.620;2022-12-07T07:53:16;5.10;99.90
6146;DHT22;3104;50.348;7.620;2022-12-07T07:55:50;5.20;99.90
6146;DHT22;3104;50.348;7.620;2022-12-07T07:58:16;5.20;99.90
6146;DHT22;3104;50.348;7.620;2022-12-07T08:00:41;5.30;99.90
6146;DHT22;3104;50.348;7.620;2022-12-07T08:03:07;5.30;99.90
6146;DHT22;3104;50.348;7.620;2022-12-07T08:05:32;5.20;99.90
6146;DHT22;3104;50.348;7.620;2022-12-07T08:07:58;5.20;99.90
6146;DHT22;3104;50.348;7.620;2022-12-07T08:10:23;5.20;99.90
6146;DHT22;3104;50.348;7.620;2022-12-07T08:12:49;5.10;99.90
6146;DHT22;3104;50.348;7.620;2022-12-07T08:15:38;5.30;99.90
6146;DHT22;3104;50.348;7.620;2022-12-07T08:18:05;5.60;99.90
6146;DHT22;3104;50.348;7.620;2022-12-07T08:20:31;5.40;99.90
6146;DHT22;3104;50.348;7.620;2022-12-07T08:22:58;5.40;99.90
6146;DHT22;3104;50.348;7.620;2022-12-07T08:25:24;5.40;99.90
6146;DHT22;3104;50.348;7.620;2022-12-07T08:27:51;5.40;99.90
6146;DHT22;3104;50.348;7.620;2022-12-07T08:30:17;5.50;99.90
6146;DHT22;3104;50.348;7.620;2022-12-07T08:32:44;5.50;99.90
6146;DHT22;3104;50.348;7.620;2022-12-07T08:35:11;5.40;99.90
6146;DHT22;3104;50.348;7.620;2022-12-07T08:37:36;5.40;99.90
6146;DHT22;3104;50.348;7.620;2022-12-07T08:40:03;5.20;99.90
6146;DHT22;3104;50.348;7.620;2022-12-07T08:42:29;5.50;99.90
6146;DHT22;3104;50.348;7.620;2022-12-07T08:45:06;5.60;99.90
6146;DHT22;3104;50.348;7.620;2022-12-07T08:47:33;5.40;99.90
6146;DHT22;3104;50.348;7.620;2022-12-07T08:49:59;5.40;99.90
6146;DHT22;3104;50.348;7.620;2022-12-07T08:52:29;5.50;99.90
6146;DHT22;3104;50.348;7.620;2022-12-07T08:54:55;5.40;99.90
6146;DHT22;3104;50.348;7.620;2022-12-07T08:57:21;5.40;99.90
6146;DHT22;3104;50.348;7.620;2022-12-07T08:59:47;5.40;99.90
6146;DHT22;3104;50.348;7.620;2022-12-07T09:02:13;5.70;99.90
6146;DHT22;3104;50.348;7.620;2022-12-07T09:04:38;5.70;99.90
6146;DHT22;3104;50.348;7.620;2022-12-07T09:07:04;5.60;99.90
6146;DHT22;3104;50.348;7.620;2022-12-07T09:09:30;5.70;99.90
6146;DHT22;3104;50.348;7.620;2022-12-07T09:11:55;5.60;99.90
6146;DHT22;3104;50.348;7.620;2022-12-07T09:14:21;5.80;99.90
6146;DHT22;3104;50.348;7.620;2022-12-07T09:16:47;5.80;99.90
6146;DHT22;3104;50.348;7.620;2022-12-07T09:19:12;5.80;99.90
6146;DHT22;3104;50.348;7.620;2022-12-07T09:21:38;5.80;99.90
6146;DHT22;3104;50.348;7.620;2022-12-07T09:24:04;5.90;99.90
6146;DHT22;3104;50.348;7.620;2022-12-07T09:26:29;5.90;99.90
6146;DHT22;3104;50.348;7.620;2022-12-07T09:28:55;6.00;99.90
6146;DHT22;3104;50.348;7.620;2022-12-07T09:31:20;6.00;99.90
6146;DHT22;3104;50.348;7.620;2022-12-07T09:33:46;6.10;99.90
6146;DHT22;3104;50.348;7.620;2022-12-07T09:36:12;5.90;99.90
6146;DHT22;3104;50.348;7.620;2022-12-07T09:38:37;5.90;99.90
6146;DHT22;3104;50.348;7.620;2022-12-07T09:41:07;6.00;99.90
6146;DHT22;3104;50.348;7.620;2022-12-07T09:43:35;5.90;99.90
6146;DHT22;3104;50.348;7.620;2022-12-07T09:46:02;5.70;99.90
6146;DHT22;3104;50.348;7.620;2022-12-07T09:48:36;5.60;99.90
6146;DHT22;3104;50.348;7.620;2022-12-07T09:51:14;5.30;99.90
6146;DHT22;3104;50.348;7.620;2022-12-07T09:53:42;5.30;99.90
6146;DHT22;3104;50.348;7.620;2022-12-07T09:56:13;5.20;99.90
6146;DHT22;3104;50.348;7.620;2022-12-07T09:58:39;5.20;99.90
6146;DHT22;3104;50.348;7.620;2022-12-07T10:03:35;5.10;99.90
6146;DHT22;3104;50.348;7.620;2022-12-07T10:06:02;5.20;99.90
6146;DHT22;3104;50.348;7.620;2022-12-07T10:08:29;5.50;99.90
6146;DHT22;3104;50.348;7.620;2022-12-07T10:10:56;5.70;99.90
6146;DHT22;3104;50.348;7.620;2022-12-07T10:13:34;5.70;99.90
6146;DHT22;3104;50.348;7.620;2022-12-07T10:16:00;5.70;99.90
6146;DHT22;3104;50.348;7.620;2022-12-07T10:18:32;5.70;99.90
6146;DHT22;3104;50.348;7.620;2022-12-07T10:23:36;5.90;99.90
6146;DHT22;3104;50.348;7.620;2022-12-07T10:26:26;5.90;99.90
6146;DHT22;3104;50.348;7.620;2022-12-07T10:28:54;5.80;99.90
6146;DHT22;3104;50.348;7.620;2022-12-07T10:31:22;5.80;99.90
6146;DHT22;3104;50.348;7.620;2022-12-07T10:33:57;5.90;99.90
6146;DHT22;3104;50.348;7.620;2022-12-07T10:36:27;6.10;99.90
6146;DHT22;3104;50.348;7.620;2022-12-07T10:39:03;6.20;99.90
6146;DHT22;3104;50.348;7.620;2022-12-07T10:41:29;6.10;99.90
6146;DHT22;3104;50.348;7.620;2022-12-07T10:43:56;6.20;99.90
6146;DHT22;3104;50.348;7.620;2022-12-07T10:46:37;6.50;99.90
6146;DHT22;3104;50.348;7.620;2022-12-07T10:54:48;7.00;99.90
6146;DHT22;3104;50.348;7.620;2022-12-07T10:57:32;7.10;99.90
6146;DHT22;3104;50.348;7.620;2022-12-07T11:10:41;7.00;99.90
6146;DHT22;3104;50.348;7.620;2022-12-07T11:16:21;6.90;99.90
6146;DHT22;3104;50.348;7.620;2022-12-07T11:29:36;6.90;99.90
6146;DHT22;3104;50.348;7.620;2022-12-07T11:32:46;7.00;99.90
6146;DHT22;3104;50.348;7.620;2022-12-07T11:37:57;7.30;99.90
6146;DHT22;3104;50.348;7.620;2022-12-07T11:40:36;7.10;99.90
6146;DHT22;3104;50.348;7.620;2022-12-07T11:43:31;7.10;99.90
6146;DHT22;3104;50.348;7.620;2022-12-07T11:46:14;7.30;99.90
6146;DHT22;3104;50.348;7.620;2022-12-07T11:48:44;7.10;99.90
6146;DHT22;3104;50.348;7.620;2022-12-07T11:51:11;6.90;99.90
6146;DHT22;3104;50.348;7.620;2022-12-07T11:53:51;6.90;99.90
6146;DHT22;3104;50.348;7.620;2022-12-07T11:56:25;6.80;99.90
6146;DHT22;3104;50.348;7.620;2022-12-07T12:07:06;6.70;99.90
6146;DHT22;3104;50.348;7.620;2022-12-07T12:09:35;6.50;99.90
6146;DHT22;3104;50.348;7.620;2022-12-07T12:12:28;6.50;99.90
6146;DHT22;3104;50.348;7.620;2022-12-07T12:15:35;6.60;99.90
6146;DHT22;3104;50.348;7.620;2022-12-07T12:20:58;6.60;99.90
6146;DHT22;3104;50.348;7.620;2022-12-07T12:23:39;6.80;99.90
6146;DHT22;3104;50.348;7.620;2022-12-07T12:26:13;6.90;99.90
6146;DHT22;3104;50.348;7.620;2022-12-07T12:28:54;7.00;99.90
6146;DHT22;3104;50.348;7.620;2022-12-07T12:33:49;7.90;99.90
6146;DHT22;3104;50.348;7.620;2022-12-07T12:46:57;9.10;99.90
6146;DHT22;3104;50.348;7.620;2022-12-07T12:54:25;8.10;99.90
6146;DHT22;3104;50.348;7.620;2022-12-07T13:01:43;6.70;99.90
6146;DHT22;3104;50.348;7.620;2022-12-07T13:04:25;6.70;99.90
6146;DHT22;3104;50.348;7.620;2022-12-07T13:06:52;6.80;99.90
6146;DHT22;3104;50.348;7.620;2022-12-07T13:09:21;6.90;99.90
6146;DHT22;3104;50.348;7.620;2022-12-07T13:11:49;6.90;99.90
6146;DHT22;3104;50.348;7.620;2022-12-07T13:17:07;6.60;99.90
6146;DHT22;3104;50.348;7.620;2022-12-07T13:27:50;6.60;99.90
6146;DHT22;3104;50.348;7.620;2022-12-07T13:30:22;6.50;99.90
6146;DHT22;3104;50.348;7.620;2022-12-07T13:32:56;6.20;99.90
6146;DHT22;3104;50.348;7.620;2022-12-07T13:35:34;5.70;99.90
6146;DHT22;3104;50.348;7.620;2022-12-07T13:38:30;5.90;99.90
6146;DHT22;3104;50.348;7.620;2022-12-07T13:43:50;5.90;99.90
6146;DHT22;3104;50.348;7.620;2022-12-07T13:46:17;6.00;99.90
6146;DHT22;3104;50.348;7.620;2022-12-07T13:48:47;6.10;99.90
6146;DHT22;3104;50.348;7.620;2022-12-07T13:51:20;5.90;99.90
6146;DHT22;3104;50.348;7.620;2022-12-07T13:53:48;6.10;99.90
6146;DHT22;3104;50.348;7.620;2022-12-07T13:56:14;6.60;99.90
6146;DHT22;3104;50.348;7.620;2022-12-07T13:58:41;6.80;99.90
6146;DHT22;3104;50.348;7.620;2022-12-07T14:01:07;6.80;99.90
6146;DHT22;3104;50.348;7.620;2022-12-07T14:03:35;6.80;99.90
6146;DHT22;3104;50.348;7.620;2022-12-07T14:06:15;6.70;99.90
6146;DHT22;3104;50.348;7.620;2022-12-07T14:08:42;6.50;99.90
6146;DHT22;3104;50.348;7.620;2022-12-07T14:11:14;6.70;99.90
6146;DHT22;3104;50.348;7.620;2022-12-07T14:14:01;6.50;99.90
6146;DHT22;3104;50.348;7.620;2022-12-07T14:16:34;6.70;99.90
6146;DHT22;3104;50.348;7.620;2022-12-07T14:19:03;6.50;99.90
6146;DHT22;3104;50.348;7.620;2022-12-07T14:21:34;6.30;99.90
6146;DHT22;3104;50.348;7.620;2022-12-07T14:24:15;6.40;99.90
6146;DHT22;3104;50.348;7.620;2022-12-07T14:26:43;6.40;99.90
6146;DHT22;3104;50.348;7.620;2022-12-07T14:29:31;6.20;99.90
6146;DHT22;3104;50.348;7.620;2022-12-07T14:32:17;6.30;99.90
6146;DHT22;3104;50.348;7.620;2022-12-07T14:34:54;6.00;99.90
6146;DHT22;3104;50.348;7.620;2022-12-07T14:37:19;5.80;99.90
6146;DHT22;3104;50.348;7.620;2022-12-07T14:39:45;5.60;99.90
6146;DHT22;3104;50.348;7.620;2022-12-07T14:42:11;5.60;99.90
6146;DHT22;3104;50.348;7.620;2022-12-07T14:44:36;5.60;99.90
6146;DHT22;3104;50.348;7.620;2022-12-07T14:47:02;5.50;99.90
6146;DHT22;3104;50.348;7.620;2022-12-07T14:49:27;5.40;99.90
6146;DHT22;3104;50.348;7.620;2022-12-07T14:51:53;5.60;99.90
6146;DHT22;3104;50.348;7.620;2022-12-07T14:54:20;5.70;99.90
6146;DHT22;3104;50.348;7.620;2022-12-07T14:56:48;5.80;99.90
6146;DHT22;3104;50.348;7.620;2022-12-07T14:59:16;5.70;99.90
6146;DHT22;3104;50.348;7.620;2022-12-07T15:01:41;5.80;99.90
6146;DHT22;3104;50.348;7.620;2022-12-07T15:04:07;5.90;99.90
6146;DHT22;3104;50.348;7.620;2022-12-07T15:06:33;5.90;99.90
6146;DHT22;3104;50.348;7.620;2022-12-07T15:08:58;5.90;99.90
6146;DHT22;3104;50.348;7.620;2022-12-07T15:11:24;5.70;99.90
6146;DHT22;3104;50.348;7.620;2022-12-07T15:13:49;5.80;99.90
6146;DHT22;3104;50.348;7.620;2022-12-07T15:16:37;6.10;99.90
6146;DHT22;3104;50.348;7.620;2022-12-07T15:19:05;6.30;99.90
6146;DHT22;3104;50.348;7.620;2022-12-07T15:21:34;6.50;99.90
6146;DHT22;3104;50.348;7.620;2022-12-07T15:23:59;6.30;99.90
6146;DHT22;3104;50.348;7.620;2022-12-07T15:26:25;6.40;99.90
6146;DHT22;3104;50.348;7.620;2022-12-07T15:28:53;6.40;99.90
6146;DHT22;3104;50.348;7.620;2022-12-07T15:31:19;6.40;99.90
6146;DHT22;3104;50.348;7.620;2022-12-07T15:33:44;6.60;99.90
6146;DHT22;3104;50.348;7.620;2022-12-07T15:36:19;6.50;99.90
6146;DHT22;3104;50.348;7.620;2022-12-07T15:38:46;6.40;99.90
6146;DHT22;3104;50.348;7.620;2022-12-07T15:41:12;6.40;99.90
6146;DHT22;3104;50.348;7.620;2022-12-07T15:43:38;6.50;99.90
6146;DHT22;3104;50.348;7.620;2022-12-07T15:46:22;6.50;99.90
6146;DHT22;3104;50.348;7.620;2022-12-07T15:48:47;6.00;99.90
6146;DHT22;3104;50.348;7.620;2022-12-07T15:51:13;6.10;99.90
6146;DHT22;3104;50.348;7.620;2022-12-07T15:53:39;6.80;99.90
6146;DHT22;3104;50.348;7.620;2022-12-07T15:56:08;6.80;99.90
6146;DHT22;3104;50.348;7.620;2022-12-07T15:58:34;7.30;99.90
6146;DHT22;3104;50.348;7.620;2022-12-07T16:01:00;7.10;99.90
6146;DHT22;3104;50.348;7.620;2022-12-07T16:03:27;7.00;99.90
6146;DHT22;3104;50.348;7.620;2022-12-07T16:05:52;6.70;99.90
6146;DHT22;3104;50.348;7.620;2022-12-07T16:08:18;6.50;99.90
6146;DHT22;3104;50.348;7.620;2022-12-07T16:10:44;6.80;99.90
6146;DHT22;3104;50.348;7.620;2022-12-07T16:13:13;7.00;99.90
6146;DHT22;3104;50.348;7.620;2022-12-07T16:15:43;7.00;99.90
6146;DHT22;3104;50.348;7.620;2022-12-07T16:18:09;6.90;99.90
6146;DHT22;3104;50.348;7.620;2022-12-07T16:20:34;7.10;99.90
6146;DHT22;3104;50.348;7.620;2022-12-07T16:23:03;6.80;99.90
6146;DHT22;3104;50.348;7.620;2022-12-07T16:25:28;6.60;99.90
6146;DHT22;3104;50.348;7.620;2022-12-07T16:27:54;6.50;99.90
6146;DHT22;3104;50.348;7.620;2022-12-07T16:30:20;6.30;99.90
6146;DHT22;3104;50.348;7.620;2022-12-07T16:32:46;6.20;99.90
6146;DHT22;3104;50.348;7.620;2022-12-07T16:35:12;5.90;99.90
6146;DHT22;3104;50.348;7.620;2022-12-07T16:37:38;5.60;99.90
6146;DHT22;3104;50.348;7.620;2022-12-07T16:40:04;5.50;99.90
6146;DHT22;3104;50.348;7.620;2022-12-07T16:42:34;5.30;99.90
6146;DHT22;3104;50.348;7.620;2022-12-07T16:45:00;5.50;99.90
6146;DHT22;3104;50.348;7.620;2022-12-07T16:47:26;5.60;99.90
6146;DHT22;3104;50.348;7.620;2022-12-07T16:49:52;6.10;99.90
6146;DHT22;3104;50.348;7.620;2022-12-07T16:52:19;5.90;99.90
6146;DHT22;3104;50.348;7.620;2022-12-07T16:54:44;5.80;99.90
6146;DHT22;3104;50.348;7.620;2022-12-07T16:57:10;6.00;99.90
6146;DHT22;3104;50.348;7.620;2022-12-07T16:59:36;5.90;99.90
6146;DHT22;3104;50.348;7.620;2022-12-07T17:02:02;6.00;99.90
6146;DHT22;3104;50.348;7.620;2022-12-07T17:04:27;6.10;99.90
6146;DHT22;3104;50.348;7.620;2022-12-07T17:06:53;6.30;99.90
6146;DHT22;3104;50.348;7.620;2022-12-07T17:09:19;6.30;99.90
6146;DHT22;3104;50.348;7.620;2022-12-07T17:11:45;6.00;99.90
6146;DHT22;3104;50.348;7.620;2022-12-07T17:14:11;5.90;99.90
6146;DHT22;3104;50.348;7.620;2022-12-07T17:16:55;6.10;99.90
6146;DHT22;3104;50.348;7.620;2022-12-07T17:19:21;6.30;99.90
6146;DHT22;3104;50.348;7.620;2022-12-07T17:21:47;6.10;99.90
6146;DHT22;3104;50.348;7.620;2022-12-07T17:24:15;6.30;99.90
6146;DHT22;3104;50.348;7.620;2022-12-07T17:26:43;6.50;99.90
6146;DHT22;3104;50.348;7.620;2022-12-07T17:29:11;6.60;99.90
6146;DHT22;3104;50.348;7.620;2022-12-07T17:31:37;6.40;99.90
6146;DHT22;3104;50.348;7.620;2022-12-07T17:34:03;6.30;99.90
6146;DHT22;3104;50.348;7.620;2022-12-07T17:36:31;6.20;99.90
6146;DHT22;3104;50.348;7.620;2022-12-07T17:38:57;6.10;99.90
6146;DHT22;3104;50.348;7.620;2022-12-07T17:41:27;5.70;99.90
6146;DHT22;3104;50.348;7.620;2022-12-07T17:44:16;5.80;99.90
6146;DHT22;3104;50.348;7.620;2022-12-07T17:46:43;5.70;99.90
6146;DHT22;3104;50.348;7.620;2022-12-07T17:49:09;5.80;99.90
6146;DHT22;3104;50.348;7.620;2022-12-07T17:51:35;5.90;99.90
6146;DHT22;3104;50.348;7.620;2022-12-07T17:54:19;5.90;99.90
6146;DHT22;3104;50.348;7.620;2022-12-07T17:56:45;5.80;99.90
6146;DHT22;3104;50.348;7.620;2022-12-07T17:59:11;5.80;99.90
6146;DHT22;3104;50.348;7.620;2022-12-07T18:01:37;6.10;99.90
6146;DHT22;3104;50.348;7.620;2022-12-07T18:04:04;6.10;99.90
6146;DHT22;3104;50.348;7.620;2022-12-07T18:06:30;6.10;99.90
6146;DHT22;3104;50.348;7.620;2022-12-07T18:08:56;6.00;99.90
6146;DHT22;3104;50.348;7.620;2022-12-07T18:11:21;6.00;99.90
6146;DHT22;3104;50.348;7.620;2022-12-07T18:13:47;5.90;99.90
6146;DHT22;3104;50.348;7.620;2022-12-07T18:16:16;6.20;99.90
6146;DHT22;3104;50.348;7.620;2022-12-07T18:18:43;6.40;99.90
6146;DHT22;3104;50.348;7.620;2022-12-07T18:21:11;6.40;99.90
6146;DHT22;3104;50.348;7.620;2022-12-07T18:23:40;6.00;99.90
6146;DHT22;3104;50.348;7.620;2022-12-07T18:26:06;5.60;99.90
6146;DHT22;3104;50.348;7.620;2022-12-07T18:28:31;5.70;99.90